sensor_id;sensor_type;location;lat;lon;timestamp;pressure;altitude;pressure_sealevel;temperature;humidity
55418;BME280;41287;47.554;7.844;2023-04-08T00:01:51;98281.06;;;16.56;61.90
55418;BME280;41287;47.554;7.844;2023-04-08T00:04:16;98274.88;;;16.55;61.80
55418;BME280;41287;47.554;7.844;2023-04-08T00:06:42;98291.88;;;16.56;61.56
55418;BME280;41287;47.554;7.844;2023-04-08T00:09:07;98278.38;;;16.56;61.79
55418;BME280;41287;47.554;7.844;2023-04-08T00:11:32;98281.06;;;16.56;61.70
55418;BME280;41287;47.554;7.844;2023-04-08T00:13:58;98279.97;;;16.57;61.77
55418;BME280;41287;47.554;7.844;2023-04-08T00:16:24;98281.88;;;16.56;61.69
55418;BME280;41287;47.554;7.844;2023-04-08T00:18:49;98279.16;;;16.56;61.80
55418;BME280;41287;47.554;7.844;2023-04-08T00:21:15;98280.28;;;16.55;61.77
55418;BME280;41287;47.554;7.844;2023-04-08T00:23:42;98272.97;;;16.56;61.73
55418;BME280;41287;47.554;7.844;2023-04-08T00:26:09;98278.38;;;16.56;61.81
55418;BME280;41287;47.554;7.844;2023-04-08T00:28:36;98274.88;;;16.55;61.75
55418;BME280;41287;47.554;7.844;2023-04-08T00:31:01;98269.44;;;16.55;61.85
55418;BME280;41287;47.554;7.844;2023-04-08T00:33:27;98266.75;;;16.55;61.78
55418;BME280;41287;47.554;7.844;2023-04-08T00:35:52;98263.25;;;16.55;61.88
55418;BME280;41287;47.554;7.844;2023-04-08T00:38:18;98265.63;;;16.56;61.88
55418;BME280;41287;47.554;7.844;2023-04-08T00:40:43;98263.25;;;16.55;61.81
55418;BME280;41287;47.554;7.844;2023-04-08T00:43:08;98263.25;;;16.55;61.74
55418;BME280;41287;47.554;7.844;2023-04-08T00:45:34;98255.13;;;16.55;61.79
55418;BME280;41287;47.554;7.844;2023-04-08T00:48:01;98258.63;;;16.55;61.73
55418;BME280;41287;47.554;7.844;2023-04-08T00:50:29;98257.84;;;16.55;61.88
55418;BME280;41287;47.554;7.844;2023-04-08T00:52:55;98266.75;;;16.55;61.70
55418;BME280;41287;47.554;7.844;2023-04-08T00:55:20;98272.16;;;16.55;61.90
55418;BME280;41287;47.554;7.844;2023-04-08T00:57:46;98269.44;;;16.55;61.67
55418;BME280;41287;47.554;7.844;2023-04-08T01:00:13;98272.97;;;16.56;61.67
55418;BME280;41287;47.554;7.844;2023-04-08T01:02:51;98267.06;;;16.54;61.74
55418;BME280;41287;47.554;7.844;2023-04-08T01:05:33;98274.88;;;16.55;61.66
55418;BME280;41287;47.554;7.844;2023-04-08T01:08:04;98273.75;;;16.56;61.81
55418;BME280;41287;47.554;7.844;2023-04-08T01:10:33;98268.66;;;16.55;61.79
55418;BME280;41287;47.554;7.844;2023-04-08T01:13:03;98274.06;;;16.55;61.50
55418;BME280;41287;47.554;7.844;2023-04-08T01:15:29;98271.34;;;16.55;61.99
55418;BME280;41287;47.554;7.844;2023-04-08T01:17:56;98267.84;;;16.54;61.83
55418;BME280;41287;47.554;7.844;2023-04-08T01:20:24;98274.88;;;16.55;61.72
55418;BME280;41287;47.554;7.844;2023-04-08T01:25:55;98271.34;;;16.55;61.72
55418;BME280;41287;47.554;7.844;2023-04-08T01:28:23;98276.78;;;16.55;61.80
55418;BME280;41287;47.554;7.844;2023-04-08T01:30:50;98275.97;;;16.54;61.76
55418;BME280;41287;47.554;7.844;2023-04-08T01:33:17;98270.56;;;16.54;61.90
55418;BME280;41287;47.554;7.844;2023-04-08T01:35:44;98270.56;;;16.54;61.83
55418;BME280;41287;47.554;7.844;2023-04-08T01:38:14;98272.47;;;16.54;61.88
55418;BME280;41287;47.554;7.844;2023-04-08T01:40:41;98275.16;;;16.54;61.76
55418;BME280;41287;47.554;7.844;2023-04-08T01:43:08;98275.97;;;16.54;61.80
55418;BME280;41287;47.554;7.844;2023-04-08T01:45:35;98278.69;;;16.54;61.80
55418;BME280;41287;47.554;7.844;2023-04-08T01:48:00;98282.97;;;16.55;61.82
55418;BME280;41287;47.554;7.844;2023-04-08T01:50:27;98286.78;;;16.54;61.81
55418;BME280;41287;47.554;7.844;2023-04-08T01:52:53;98277.06;;;16.53;61.75
55418;BME280;41287;47.554;7.844;2023-04-08T01:55:20;98275.97;;;16.54;61.73
55418;BME280;41287;47.554;7.844;2023-04-08T01:57:50;98279.47;;;16.55;61.78
55418;BME280;41287;47.554;7.844;2023-04-08T02:00:19;98273.25;;;16.54;61.91
55418;BME280;41287;47.554;7.844;2023-04-08T02:02:46;98280.56;;;16.54;61.73
55418;BME280;41287;47.554;7.844;2023-04-08T02:05:12;98282.19;;;16.55;61.75
55418;BME280;41287;47.554;7.844;2023-04-08T02:07:38;98275.16;;;16.54;61.80
55418;BME280;41287;47.554;7.844;2023-04-08T02:10:04;98282.47;;;16.53;61.80
55418;BME280;41287;47.554;7.844;2023-04-08T02:12:30;98288.69;;;16.54;61.72
55418;BME280;41287;47.554;7.844;2023-04-08T02:14:56;98287.59;;;16.55;61.63
55418;BME280;41287;47.554;7.844;2023-04-08T02:17:42;98284.69;;;16.51;61.90
55418;BME280;41287;47.554;7.844;2023-04-08T02:20:10;98289.50;;;16.54;61.66
55418;BME280;41287;47.554;7.844;2023-04-08T02:22:46;98280.56;;;16.54;61.86
55418;BME280;41287;47.554;7.844;2023-04-08T02:25:14;98286.00;;;16.54;61.77
55418;BME280;41287;47.554;7.844;2023-04-08T02:27:40;98290.59;;;16.53;61.80
55418;BME280;41287;47.554;7.844;2023-04-08T02:30:07;98284.09;;;16.54;61.73
55418;BME280;41287;47.554;7.844;2023-04-08T02:32:35;98289.00;;;16.52;61.74
55418;BME280;41287;47.554;7.844;2023-04-08T02:35:01;98293.31;;;16.53;61.73
55418;BME280;41287;47.554;7.844;2023-04-08T02:37:28;98291.41;;;16.54;61.88
55418;BME280;41287;47.554;7.844;2023-04-08T02:39:54;98287.91;;;16.53;61.81
55418;BME280;41287;47.554;7.844;2023-04-08T02:42:19;98290.59;;;16.53;61.75
55418;BME280;41287;47.554;7.844;2023-04-08T02:44:45;98293.31;;;16.53;61.75
55418;BME280;41287;47.554;7.844;2023-04-08T02:47:10;98293.31;;;16.53;61.76
55418;BME280;41287;47.554;7.844;2023-04-08T02:49:36;98304.13;;;16.53;61.81
55418;BME280;41287;47.554;7.844;2023-04-08T02:52:01;98288.69;;;16.54;61.72
55418;BME280;41287;47.554;7.844;2023-04-08T02:54:26;98300.63;;;16.53;61.72
55418;BME280;41287;47.554;7.844;2023-04-08T02:56:52;98303.31;;;16.53;61.83
55418;BME280;41287;47.554;7.844;2023-04-08T02:59:17;98300.63;;;16.53;61.55
55418;BME280;41287;47.554;7.844;2023-04-08T03:01:43;98301.41;;;16.53;61.75
55418;BME280;41287;47.554;7.844;2023-04-08T03:04:10;98297.13;;;16.52;61.79
55418;BME280;41287;47.554;7.844;2023-04-08T03:06:35;98302.53;;;16.52;61.83
55418;BME280;41287;47.554;7.844;2023-04-08T03:09:01;98291.72;;;16.52;61.76
55418;BME280;41287;47.554;7.844;2023-04-08T03:11:26;98299.81;;;16.52;61.88
55418;BME280;41287;47.554;7.844;2023-04-08T03:13:52;98287.09;;;16.53;61.75
55418;BME280;41287;47.554;7.844;2023-04-08T03:16:17;98287.91;;;16.53;61.79
55418;BME280;41287;47.554;7.844;2023-04-08T03:18:42;98289.00;;;16.52;61.86
55418;BME280;41287;47.554;7.844;2023-04-08T03:21:07;98287.41;;;16.51;61.81
55418;BME280;41287;47.554;7.844;2023-04-08T03:23:33;98289.81;;;16.53;61.74
55418;BME280;41287;47.554;7.844;2023-04-08T03:25:58;98287.09;;;16.53;61.68
55418;BME280;41287;47.554;7.844;2023-04-08T03:28:24;98283.59;;;16.52;61.70
55418;BME280;41287;47.554;7.844;2023-04-08T03:30:49;98286.28;;;16.52;61.82
55418;BME280;41287;47.554;7.844;2023-04-08T03:33:14;98290.91;;;16.52;61.61
55418;BME280;41287;47.554;7.844;2023-04-08T03:35:39;98291.72;;;16.52;61.84
55418;BME280;41287;47.554;7.844;2023-04-08T03:38:05;98300.63;;;16.53;61.64
55418;BME280;41287;47.554;7.844;2023-04-08T03:40:30;98301.72;;;16.52;61.75
55418;BME280;41287;47.554;7.844;2023-04-08T03:42:56;98297.91;;;16.53;61.83
55418;BME280;41287;47.554;7.844;2023-04-08T03:45:21;98297.13;;;16.52;61.79
55418;BME280;41287;47.554;7.844;2023-04-08T03:47:46;98299.03;;;16.52;61.63
55418;BME280;41287;47.554;7.844;2023-04-08T03:50:12;98296.31;;;16.52;61.84
55418;BME280;41287;47.554;7.844;2023-04-08T03:52:37;98301.72;;;16.52;61.84
55418;BME280;41287;47.554;7.844;2023-04-08T03:55:03;98303.63;;;16.51;61.67
55418;BME280;41287;47.554;7.844;2023-04-08T03:57:28;98302.53;;;16.52;61.68
55418;BME280;41287;47.554;7.844;2023-04-08T03:59:55;98297.13;;;16.52;61.70
55418;BME280;41287;47.554;7.844;2023-04-08T04:02:21;98303.63;;;16.51;61.82
55418;BME280;41287;47.554;7.844;2023-04-08T04:04:46;98301.72;;;16.52;61.69
55418;BME280;41287;47.554;7.844;2023-04-08T04:07:11;98304.78;;;16.50;61.69
55418;BME280;41287;47.554;7.844;2023-04-08T04:09:37;98307.13;;;16.52;61.67
55418;BME280;41287;47.554;7.844;2023-04-08T04:12:04;98304.44;;;16.52;61.77
55418;BME280;41287;47.554;7.844;2023-04-08T04:14:29;98302.88;;;16.51;61.78
55418;BME280;41287;47.554;7.844;2023-04-08T04:16:55;98309.84;;;16.52;61.68
55418;BME280;41287;47.554;7.844;2023-04-08T04:19:20;98306.34;;;16.51;61.76
55418;BME280;41287;47.554;7.844;2023-04-08T04:21:45;98305.56;;;16.51;61.78
55418;BME280;41287;47.554;7.844;2023-04-08T04:24:11;98311.75;;;16.51;61.85
55418;BME280;41287;47.554;7.844;2023-04-08T04:26:39;98306.34;;;16.51;61.79
55418;BME280;41287;47.554;7.844;2023-04-08T04:29:05;98306.34;;;16.51;61.94
55418;BME280;41287;47.554;7.844;2023-04-08T04:31:31;98304.44;;;16.52;61.69
55418;BME280;41287;47.554;7.844;2023-04-08T04:33:56;98309.84;;;16.52;61.69
55418;BME280;41287;47.554;7.844;2023-04-08T04:36:22;98309.03;;;16.51;61.66
55418;BME280;41287;47.554;7.844;2023-04-08T04:38:48;98309.03;;;16.51;61.71
55418;BME280;41287;47.554;7.844;2023-04-08T04:41:13;98313.69;;;16.51;61.86
55418;BME280;41287;47.554;7.844;2023-04-08T04:43:39;98309.03;;;16.51;61.76
55418;BME280;41287;47.554;7.844;2023-04-08T04:46:05;98317.16;;;16.51;61.78
55418;BME280;41287;47.554;7.844;2023-04-08T04:48:33;98319.09;;;16.51;61.61
55418;BME280;41287;47.554;7.844;2023-04-08T04:50:59;98314.44;;;16.51;61.89
55418;BME280;41287;47.554;7.844;2023-04-08T04:53:25;98316.38;;;16.51;61.75
55418;BME280;41287;47.554;7.844;2023-04-08T04:55:51;98321.78;;;16.51;61.74
55418;BME280;41287;47.554;7.844;2023-04-08T04:58:16;98322.56;;;16.51;61.76
55418;BME280;41287;47.554;7.844;2023-04-08T05:00:42;98319.88;;;16.51;61.69
55418;BME280;41287;47.554;7.844;2023-04-08T05:03:09;98329.13;;;16.50;61.77
55418;BME280;41287;47.554;7.844;2023-04-08T05:05:35;98325.28;;;16.51;61.75
55418;BME280;41287;47.554;7.844;2023-04-08T05:08:00;98331.47;;;16.52;61.67
55418;BME280;41287;47.554;7.844;2023-04-08T05:10:26;98327.22;;;16.51;61.67
55418;BME280;41287;47.554;7.844;2023-04-08T05:12:51;98335.31;;;16.51;61.79
55418;BME280;41287;47.554;7.844;2023-04-08T05:15:18;98341.50;;;16.51;61.74
55418;BME280;41287;47.554;7.844;2023-04-08T05:17:45;98346.16;;;16.51;61.72
55418;BME280;41287;47.554;7.844;2023-04-08T05:20:11;98349.63;;;16.51;61.72
55418;BME280;41287;47.554;7.844;2023-04-08T05:22:36;98352.31;;;16.51;61.76
55418;BME280;41287;47.554;7.844;2023-04-08T05:25:04;98359.66;;;16.51;61.77
55418;BME280;41287;47.554;7.844;2023-04-08T05:27:32;98363.13;;;16.51;62.07
55418;BME280;41287;47.554;7.844;2023-04-08T05:29:57;98362.38;;;16.51;61.71
55418;BME280;41287;47.554;7.844;2023-04-08T05:32:22;98365.06;;;16.51;61.68
55418;BME280;41287;47.554;7.844;2023-04-08T05:34:48;98359.66;;;16.51;61.71
55418;BME280;41287;47.554;7.844;2023-04-08T05:37:13;98358.88;;;16.50;61.54
55418;BME280;41287;47.554;7.844;2023-04-08T05:39:38;98361.56;;;16.50;61.61
55418;BME280;41287;47.554;7.844;2023-04-08T05:42:04;98362.38;;;16.51;61.74
55418;BME280;41287;47.554;7.844;2023-04-08T05:44:29;98360.44;;;16.51;61.70
55418;BME280;41287;47.554;7.844;2023-04-08T05:46:56;98361.56;;;16.50;61.61
55418;BME280;41287;47.554;7.844;2023-04-08T05:49:22;98374.28;;;16.50;61.65
55418;BME280;41287;47.554;7.844;2023-04-08T05:51:47;98363.47;;;16.50;61.80
55418;BME280;41287;47.554;7.844;2023-04-08T05:54:13;98372.38;;;16.50;61.67
55418;BME280;41287;47.554;7.844;2023-04-08T05:56:40;98375.09;;;16.50;61.71
55418;BME280;41287;47.554;7.844;2023-04-08T05:59:06;98373.19;;;16.51;61.78
55418;BME280;41287;47.554;7.844;2023-04-08T06:01:31;98383.22;;;16.50;61.61
55418;BME280;41287;47.554;7.844;2023-04-08T06:03:56;98380.50;;;16.50;61.67
55418;BME280;41287;47.554;7.844;2023-04-08T06:06:24;98381.59;;;16.49;61.60
55418;BME280;41287;47.554;7.844;2023-04-08T06:08:50;98391.31;;;16.50;61.61
55418;BME280;41287;47.554;7.844;2023-04-08T06:11:15;98391.31;;;16.50;61.71
55418;BME280;41287;47.554;7.844;2023-04-08T06:13:41;98396.75;;;16.50;61.76
55418;BME280;41287;47.554;7.844;2023-04-08T06:16:14;98391.63;;;16.49;61.76
55418;BME280;41287;47.554;7.844;2023-04-08T06:18:41;98390.53;;;16.50;61.70
55418;BME280;41287;47.554;7.844;2023-04-08T06:21:06;98393.22;;;16.50;61.75
55418;BME280;41287;47.554;7.844;2023-04-08T06:23:32;98390.53;;;16.50;61.71
55418;BME280;41287;47.554;7.844;2023-04-08T06:25:57;98389.72;;;16.49;61.73
55418;BME280;41287;47.554;7.844;2023-04-08T06:28:23;98388.63;;;16.50;61.57
55418;BME280;41287;47.554;7.844;2023-04-08T06:30:48;98379.72;;;16.50;61.64
55418;BME280;41287;47.554;7.844;2023-04-08T06:33:14;98381.59;;;16.49;61.79
55418;BME280;41287;47.554;7.844;2023-04-08T06:35:39;98385.13;;;16.50;61.63
55418;BME280;41287;47.554;7.844;2023-04-08T06:38:05;98389.72;;;16.49;61.76
55418;BME280;41287;47.554;7.844;2023-04-08T06:40:30;98387.03;;;16.49;61.87
55418;BME280;41287;47.554;7.844;2023-04-08T06:42:56;98385.91;;;16.50;62.08
55418;BME280;41287;47.554;7.844;2023-04-08T06:45:21;98388.63;;;16.50;61.62
55418;BME280;41287;47.554;7.844;2023-04-08T06:47:47;98392.44;;;16.49;61.73
55418;BME280;41287;47.554;7.844;2023-04-08T06:50:12;98387.03;;;16.49;61.67
55418;BME280;41287;47.554;7.844;2023-04-08T06:52:37;98387.03;;;16.49;61.73
55418;BME280;41287;47.554;7.844;2023-04-08T06:55:03;98384.31;;;16.49;61.78
55418;BME280;41287;47.554;7.844;2023-04-08T06:57:28;98387.03;;;16.49;61.68
55418;BME280;41287;47.554;7.844;2023-04-08T06:59:54;98390.84;;;16.48;61.74
55418;BME280;41287;47.554;7.844;2023-04-08T07:02:20;98393.53;;;16.48;61.59
55418;BME280;41287;47.554;7.844;2023-04-08T07:04:48;98392.44;;;16.49;61.80
55418;BME280;41287;47.554;7.844;2023-04-08T07:07:15;98394.84;;;16.51;62.00
55418;BME280;41287;47.554;7.844;2023-04-08T07:09:40;98406.59;;;16.55;62.10
55418;BME280;41287;47.554;7.844;2023-04-08T07:12:07;98403.19;;;16.63;62.20
55418;BME280;41287;47.554;7.844;2023-04-08T07:14:32;98403.84;;;16.69;62.17
55418;BME280;41287;47.554;7.844;2023-04-08T07:16:58;98402.56;;;16.75;62.22
55418;BME280;41287;47.554;7.844;2023-04-08T07:19:25;98413.59;;;16.78;62.41
55418;BME280;41287;47.554;7.844;2023-04-08T07:21:51;98412.63;;;16.83;62.57
55418;BME280;41287;47.554;7.844;2023-04-08T07:24:16;98420.44;;;16.84;63.05
55418;BME280;41287;47.554;7.844;2023-04-08T07:26:42;98408.97;;;16.87;63.39
55418;BME280;41287;47.554;7.844;2023-04-08T07:29:08;98404.84;;;16.90;64.08
55418;BME280;41287;47.554;7.844;2023-04-08T07:31:35;98411.22;;;16.94;64.59
55418;BME280;41287;47.554;7.844;2023-04-08T07:34:01;98407.09;;;16.96;65.49
55418;BME280;41287;47.554;7.844;2023-04-08T07:36:26;98421.13;;;16.98;66.18
55418;BME280;41287;47.554;7.844;2023-04-08T07:38:52;98415.38;;;17.00;66.72
55418;BME280;41287;47.554;7.844;2023-04-08T07:41:17;98425.59;;;17.03;67.28
55418;BME280;41287;47.554;7.844;2023-04-08T07:43:43;98421.47;;;17.06;67.75
55418;BME280;41287;47.554;7.844;2023-04-08T07:46:08;98413.00;;;17.07;68.27
55418;BME280;41287;47.554;7.844;2023-04-08T07:48:34;98418.13;;;17.09;69.53
55418;BME280;41287;47.554;7.844;2023-04-08T07:51:04;98425.94;;;17.10;70.67
55418;BME280;41287;47.554;7.844;2023-04-08T07:53:30;98435.66;;;17.11;71.16
55418;BME280;41287;47.554;7.844;2023-04-08T07:55:56;98425.28;;;17.13;72.06
55418;BME280;41287;47.554;7.844;2023-04-08T07:58:21;98425.78;;;17.15;72.00
55418;BME280;41287;47.554;7.844;2023-04-08T08:00:47;98420.38;;;17.15;71.76
55418;BME280;41287;47.554;7.844;2023-04-08T08:03:18;98424.66;;;17.16;71.08
55418;BME280;41287;47.554;7.844;2023-04-08T08:05:43;98424.81;;;17.11;68.75
55418;BME280;41287;47.554;7.844;2023-04-08T08:08:09;98423.38;;;17.05;64.29
55418;BME280;41287;47.554;7.844;2023-04-08T08:10:38;98427.31;;;16.99;62.48
55418;BME280;41287;47.554;7.844;2023-04-08T08:13:04;98416.94;;;16.92;61.20
55418;BME280;41287;47.554;7.844;2023-04-08T08:15:30;98418.22;;;16.86;58.94
55418;BME280;41287;47.554;7.844;2023-04-08T08:17:55;98417.25;;;16.82;59.77
55418;BME280;41287;47.554;7.844;2023-04-08T08:20:23;98421.38;;;16.80;60.21
55418;BME280;41287;47.554;7.844;2023-04-08T08:22:48;98422.16;;;16.80;60.83
55418;BME280;41287;47.554;7.844;2023-04-08T08:25:15;98424.41;;;16.78;61.13
55418;BME280;41287;47.554;7.844;2023-04-08T08:27:40;98426.31;;;16.78;61.20
55418;BME280;41287;47.554;7.844;2023-04-08T08:30:07;98426.31;;;16.78;61.28
55418;BME280;41287;47.554;7.844;2023-04-08T08:32:33;98424.72;;;16.77;61.30
55418;BME280;41287;47.554;7.844;2023-04-08T08:34:58;98440.16;;;16.76;61.43
55418;BME280;41287;47.554;7.844;2023-04-08T08:37:24;98443.66;;;16.77;61.28
55418;BME280;41287;47.554;7.844;2023-04-08T08:39:49;98441.25;;;16.75;61.44
55418;BME280;41287;47.554;7.844;2023-04-08T08:42:19;98449.38;;;16.75;61.52
55418;BME280;41287;47.554;7.844;2023-04-08T08:44:45;98449.38;;;16.75;61.39
55418;BME280;41287;47.554;7.844;2023-04-08T08:47:10;98444.28;;;16.74;61.46
55418;BME280;41287;47.554;7.844;2023-04-08T08:49:38;98447.78;;;16.74;61.61
55418;BME280;41287;47.554;7.844;2023-04-08T08:52:03;98452.38;;;16.74;61.69
55418;BME280;41287;47.554;7.844;2023-04-08T08:54:30;98446.19;;;16.73;61.70
55418;BME280;41287;47.554;7.844;2023-04-08T08:56:56;98449.69;;;16.74;61.79
55418;BME280;41287;47.554;7.844;2023-04-08T08:59:21;98443.47;;;16.73;61.90
55418;BME280;41287;47.554;7.844;2023-04-08T09:01:47;98448.09;;;16.73;61.85
55418;BME280;41287;47.554;7.844;2023-04-08T09:04:14;98446.97;;;16.74;61.97
55418;BME280;41287;47.554;7.844;2023-04-08T09:06:43;98441.88;;;16.72;61.96
55418;BME280;41287;47.554;7.844;2023-04-08T09:09:10;98447.28;;;16.72;61.96
55418;BME280;41287;47.554;7.844;2023-04-08T09:11:40;98446.19;;;16.73;61.90
55418;BME280;41287;47.554;7.844;2023-04-08T09:14:19;98448.41;;;16.71;62.17
55418;BME280;41287;47.554;7.844;2023-04-08T09:16:45;98450.00;;;16.72;61.97
55418;BME280;41287;47.554;7.844;2023-04-08T09:19:10;98448.09;;;16.73;62.09
55418;BME280;41287;47.554;7.844;2023-04-08T09:21:38;98447.28;;;16.72;62.14
55418;BME280;41287;47.554;7.844;2023-04-08T09:24:06;98445.72;;;16.71;62.02
55418;BME280;41287;47.554;7.844;2023-04-08T09:26:31;98442.22;;;16.71;62.10
55418;BME280;41287;47.554;7.844;2023-04-08T09:29:05;98436.31;;;16.69;62.01
55418;BME280;41287;47.554;7.844;2023-04-08T09:31:32;98441.41;;;16.70;62.00
55418;BME280;41287;47.554;7.844;2023-04-08T09:34:00;98439.50;;;16.71;62.10
55418;BME280;41287;47.554;7.844;2023-04-08T09:36:33;98443.00;;;16.71;62.06
55418;BME280;41287;47.554;7.844;2023-04-08T09:38:58;98446.81;;;16.70;62.05
55418;BME280;41287;47.554;7.844;2023-04-08T09:41:26;98440.59;;;16.70;62.05
55418;BME280;41287;47.554;7.844;2023-04-08T09:43:53;98444.41;;;16.69;62.14
55418;BME280;41287;47.554;7.844;2023-04-08T09:46:32;98439.31;;;16.67;62.03
55418;BME280;41287;47.554;7.844;2023-04-08T09:49:11;98452.84;;;16.67;62.08
55418;BME280;41287;47.554;7.844;2023-04-08T09:51:43;98453.63;;;16.68;62.30
55418;BME280;41287;47.554;7.844;2023-04-08T09:54:13;98454.44;;;16.68;62.12
55418;BME280;41287;47.554;7.844;2023-04-08T09:56:50;98452.84;;;16.67;62.14
55418;BME280;41287;47.554;7.844;2023-04-08T09:59:20;98453.63;;;16.68;62.13
55418;BME280;41287;47.554;7.844;2023-04-08T10:01:52;98462.84;;;16.67;62.13
55418;BME280;41287;47.554;7.844;2023-04-08T10:04:20;98458.25;;;16.67;62.12
55418;BME280;41287;47.554;7.844;2023-04-08T10:06:53;98466.66;;;16.66;62.22
55418;BME280;41287;47.554;7.844;2023-04-08T10:09:21;98466.66;;;16.66;62.12
55418;BME280;41287;47.554;7.844;2023-04-08T10:11:49;98463.97;;;16.66;62.29
55418;BME280;41287;47.554;7.844;2023-04-08T10:14:15;98459.34;;;16.66;62.26
55418;BME280;41287;47.554;7.844;2023-04-08T10:16:41;98462.84;;;16.67;62.18
55418;BME280;41287;47.554;7.844;2023-04-08T10:19:36;98456.97;;;16.65;62.03
55418;BME280;41287;47.554;7.844;2023-04-08T10:22:44;98458.09;;;16.64;61.83
55418;BME280;41287;47.554;7.844;2023-04-08T10:27:43;98459.84;;;16.68;61.68
55418;BME280;41287;47.554;7.844;2023-04-08T10:32:56;98452.03;;;16.67;61.56
55418;BME280;41287;47.554;7.844;2023-04-08T10:35:35;98447.72;;;16.66;61.55
55418;BME280;41287;47.554;7.844;2023-04-08T10:38:01;98448.22;;;16.68;61.84
55418;BME280;41287;47.554;7.844;2023-04-08T10:40:27;98449.34;;;16.67;61.88
55418;BME280;41287;47.554;7.844;2023-04-08T10:42:58;98443.47;;;16.65;61.71
55418;BME280;41287;47.554;7.844;2023-04-08T10:45:24;98452.03;;;16.67;61.61
55418;BME280;41287;47.554;7.844;2023-04-08T10:47:49;98455.06;;;16.65;61.79
55418;BME280;41287;47.554;7.844;2023-04-08T10:50:17;98454.28;;;16.65;61.77
55418;BME280;41287;47.554;7.844;2023-04-08T10:52:50;98447.28;;;16.64;61.77
55418;BME280;41287;47.554;7.844;2023-04-08T10:55:21;98447.28;;;16.64;61.74
55418;BME280;41287;47.554;7.844;2023-04-08T10:57:47;98442.66;;;16.64;61.70
55418;BME280;41287;47.554;7.844;2023-04-08T11:00:17;98447.28;;;16.64;61.81
55418;BME280;41287;47.554;7.844;2023-04-08T11:02:43;98449.16;;;16.63;61.72
55418;BME280;41287;47.554;7.844;2023-04-08T11:05:11;98444.06;;;16.62;61.74
55418;BME280;41287;47.554;7.844;2023-04-08T11:07:42;98447.88;;;16.61;61.85
55418;BME280;41287;47.554;7.844;2023-04-08T11:10:10;98444.06;;;16.62;61.81
55418;BME280;41287;47.554;7.844;2023-04-08T11:12:36;98448.69;;;16.61;61.74
55418;BME280;41287;47.554;7.844;2023-04-08T11:15:03;98440.56;;;16.61;61.88
55418;BME280;41287;47.554;7.844;2023-04-08T11:17:29;98438.66;;;16.62;61.72
55418;BME280;41287;47.554;7.844;2023-04-08T11:19:55;98441.34;;;16.62;61.79
55418;BME280;41287;47.554;7.844;2023-04-08T11:22:26;98435.94;;;16.62;61.82
55418;BME280;41287;47.554;7.844;2023-04-08T11:24:52;98435.16;;;16.61;61.87
55418;BME280;41287;47.554;7.844;2023-04-08T11:27:17;98432.44;;;16.61;61.91
55418;BME280;41287;47.554;7.844;2023-04-08T11:29:45;98430.00;;;16.59;61.80
55418;BME280;41287;47.554;7.844;2023-04-08T11:32:11;98434.34;;;16.61;61.84
55418;BME280;41287;47.554;7.844;2023-04-08T11:34:38;98436.25;;;16.60;62.05
55418;BME280;41287;47.554;7.844;2023-04-08T11:37:04;98435.44;;;16.59;61.82
55418;BME280;41287;47.554;7.844;2023-04-08T11:39:29;98430.84;;;16.60;61.91
55418;BME280;41287;47.554;7.844;2023-04-08T11:41:55;98425.72;;;16.58;61.93
55418;BME280;41287;47.554;7.844;2023-04-08T11:44:32;98426.03;;;16.57;61.99
55418;BME280;41287;47.554;7.844;2023-04-08T11:46:57;98425.72;;;16.58;61.98
55418;BME280;41287;47.554;7.844;2023-04-08T11:49:23;98421.91;;;16.59;62.09
55418;BME280;41287;47.554;7.844;2023-04-08T11:51:58;98418.72;;;16.57;62.06
55418;BME280;41287;47.554;7.844;2023-04-08T11:54:28;98420.28;;;16.58;61.92
55418;BME280;41287;47.554;7.844;2023-04-08T11:56:57;98420.28;;;16.58;62.02
55418;BME280;41287;47.554;7.844;2023-04-08T11:59:23;98414.88;;;16.58;62.08
55418;BME280;41287;47.554;7.844;2023-04-08T12:01:50;98420.28;;;16.58;62.24
55418;BME280;41287;47.554;7.844;2023-04-08T12:04:16;98421.44;;;16.57;61.97
55418;BME280;41287;47.554;7.844;2023-04-08T12:06:41;98413.63;;;16.56;62.18
55418;BME280;41287;47.554;7.844;2023-04-08T12:09:10;98419.84;;;16.56;62.10
55418;BME280;41287;47.554;7.844;2023-04-08T12:11:36;98416.03;;;16.57;62.02
55418;BME280;41287;47.554;7.844;2023-04-08T12:14:04;98422.53;;;16.56;62.18
55418;BME280;41287;47.554;7.844;2023-04-08T12:16:31;98421.44;;;16.57;62.14
55418;BME280;41287;47.554;7.844;2023-04-08T12:18:56;98424.13;;;16.57;62.11
55418;BME280;41287;47.554;7.844;2023-04-08T12:21:22;98426.84;;;16.57;62.21
55418;BME280;41287;47.554;7.844;2023-04-08T12:23:47;98420.94;;;16.55;62.11
55418;BME280;41287;47.554;7.844;2023-04-08T12:26:12;98420.63;;;16.57;62.21
55418;BME280;41287;47.554;7.844;2023-04-08T12:28:38;98418.22;;;16.55;62.13
55418;BME280;41287;47.554;7.844;2023-04-08T12:31:04;98424.44;;;16.56;62.06
55418;BME280;41287;47.554;7.844;2023-04-08T12:33:30;98418.22;;;16.55;62.17
55418;BME280;41287;47.554;7.844;2023-04-08T12:35:55;98418.22;;;16.55;62.25
55418;BME280;41287;47.554;7.844;2023-04-08T12:38:23;98416.31;;;16.56;62.06
55418;BME280;41287;47.554;7.844;2023-04-08T12:40:49;98410.91;;;16.56;62.09
55418;BME280;41287;47.554;7.844;2023-04-08T12:43:15;98404.72;;;16.55;62.29
55418;BME280;41287;47.554;7.844;2023-04-08T12:45:40;98407.41;;;16.55;62.23
55418;BME280;41287;47.554;7.844;2023-04-08T12:48:08;98410.91;;;16.56;62.10
55418;BME280;41287;47.554;7.844;2023-04-08T12:50:33;98415.53;;;16.55;62.26
55418;BME280;41287;47.554;7.844;2023-04-08T12:52:58;98410.91;;;16.56;62.33
55418;BME280;41287;47.554;7.844;2023-04-08T12:55:24;98403.09;;;16.54;62.41
55418;BME280;41287;47.554;7.844;2023-04-08T12:57:50;98406.59;;;16.55;62.29
55418;BME280;41287;47.554;7.844;2023-04-08T13:00:16;98414.72;;;16.55;62.27
55418;BME280;41287;47.554;7.844;2023-04-08T13:02:42;98410.13;;;16.55;62.21
55418;BME280;41287;47.554;7.844;2023-04-08T13:05:08;98401.19;;;16.55;62.27
55418;BME280;41287;47.554;7.844;2023-04-08T13:07:34;98404.72;;;16.55;62.10